sensor_id;sensor_type;location;lat;lon;timestamp;P1;durP1;ratioP1;P2;durP2;ratioP2
53479;SDS011;56133;51.012;-1.648;2022-07-23T00:01:16;16.27;;;9.60;;
53479;SDS011;56133;51.012;-1.648;2022-07-23T00:03:41;13.63;;;9.85;;
53479;SDS011;56133;51.012;-1.648;2022-07-23T00:06:06;16.58;;;9.38;;
53479;SDS011;56133;51.012;-1.648;2022-07-23T00:08:32;21.88;;;9.50;;
53479;SDS011;56133;51.012;-1.648;2022-07-23T00:10:58;18.70;;;9.30;;
53479;SDS011;56133;51.012;-1.648;2022-07-23T00:13:23;14.10;;;9.32;;
53479;SDS011;56133;51.012;-1.648;2022-07-23T00:15:48;14.13;;;8.90;;
53479;SDS011;56133;51.012;-1.648;2022-07-23T00:18:14;12.70;;;8.60;;
53479;SDS011;56133;51.012;-1.648;2022-07-23T00:20:39;14.43;;;8.57;;
53479;SDS011;56133;51.012;-1.648;2022-07-23T00:23:05;13.63;;;8.23;;
53479;SDS011;56133;51.012;-1.648;2022-07-23T00:25:30;19.92;;;8.63;;
53479;SDS011;56133;51.012;-1.648;2022-07-23T00:27:56;17.05;;;7.97;;
53479;SDS011;56133;51.012;-1.648;2022-07-23T00:30:22;14.95;;;7.38;;
53479;SDS011;56133;51.012;-1.648;2022-07-23T00:32:49;12.88;;;8.13;;
53479;SDS011;56133;51.012;-1.648;2022-07-23T00:35:22;16.75;;;7.78;;
53479;SDS011;56133;51.012;-1.648;2022-07-23T00:37:49;17.10;;;8.45;;
53479;SDS011;56133;51.012;-1.648;2022-07-23T00:40:15;15.13;;;7.25;;
53479;SDS011;56133;51.012;-1.648;2022-07-23T00:42:41;17.48;;;8.05;;
53479;SDS011;56133;51.012;-1.648;2022-07-23T00:45:07;13.73;;;8.48;;
53479;SDS011;56133;51.012;-1.648;2022-07-23T00:47:33;18.33;;;8.25;;
53479;SDS011;56133;51.012;-1.648;2022-07-23T00:49:58;15.05;;;7.85;;
53479;SDS011;56133;51.012;-1.648;2022-07-23T00:52:24;11.95;;;8.18;;
53479;SDS011;56133;51.012;-1.648;2022-07-23T00:54:50;18.92;;;8.27;;
53479;SDS011;56133;51.012;-1.648;2022-07-23T00:57:16;14.75;;;8.40;;
53479;SDS011;56133;51.012;-1.648;2022-07-23T00:59:42;17.33;;;8.32;;
53479;SDS011;56133;51.012;-1.648;2022-07-23T01:02:08;19.02;;;8.25;;
53479;SDS011;56133;51.012;-1.648;2022-07-23T01:04:34;16.92;;;8.75;;
53479;SDS011;56133;51.012;-1.648;2022-07-23T01:07:00;15.30;;;8.18;;
53479;SDS011;56133;51.012;-1.648;2022-07-23T01:09:26;15.38;;;8.13;;
53479;SDS011;56133;51.012;-1.648;2022-07-23T01:11:51;14.00;;;8.35;;
53479;SDS011;56133;51.012;-1.648;2022-07-23T01:14:19;16.02;;;8.23;;
53479;SDS011;56133;51.012;-1.648;2022-07-23T01:16:46;16.35;;;8.82;;
53479;SDS011;56133;51.012;-1.648;2022-07-23T01:19:13;17.65;;;8.73;;
53479;SDS011;56133;51.012;-1.648;2022-07-23T01:21:43;16.45;;;8.73;;
53479;SDS011;56133;51.012;-1.648;2022-07-23T01:24:11;15.30;;;8.85;;
53479;SDS011;56133;51.012;-1.648;2022-07-23T01:26:38;13.10;;;8.35;;
53479;SDS011;56133;51.012;-1.648;2022-07-23T01:29:05;16.13;;;9.07;;
53479;SDS011;56133;51.012;-1.648;2022-07-23T01:31:31;16.77;;;8.48;;
53479;SDS011;56133;51.012;-1.648;2022-07-23T01:33:57;15.63;;;8.75;;
53479;SDS011;56133;51.012;-1.648;2022-07-23T01:36:22;13.45;;;8.93;;
53479;SDS011;56133;51.012;-1.648;2022-07-23T01:38:48;12.68;;;8.48;;
53479;SDS011;56133;51.012;-1.648;2022-07-23T01:41:14;13.73;;;8.43;;
53479;SDS011;56133;51.012;-1.648;2022-07-23T01:43:39;15.18;;;8.77;;
53479;SDS011;56133;51.012;-1.648;2022-07-23T01:46:05;13.02;;;7.97;;
53479;SDS011;56133;51.012;-1.648;2022-07-23T01:48:31;13.23;;;8.73;;
53479;SDS011;56133;51.012;-1.648;2022-07-23T01:50:56;12.50;;;8.38;;
53479;SDS011;56133;51.012;-1.648;2022-07-23T01:53:21;13.32;;;8.38;;
53479;SDS011;56133;51.012;-1.648;2022-07-23T01:55:47;17.33;;;8.25;;
53479;SDS011;56133;51.012;-1.648;2022-07-23T01:58:13;13.70;;;8.25;;
53479;SDS011;56133;51.012;-1.648;2022-07-23T02:00:38;15.15;;;8.25;;
53479;SDS011;56133;51.012;-1.648;2022-07-23T02:03:04;14.20;;;8.30;;
53479;SDS011;56133;51.012;-1.648;2022-07-23T02:05:29;14.85;;;8.55;;
53479;SDS011;56133;51.012;-1.648;2022-07-23T02:07:55;16.00;;;9.27;;
53479;SDS011;56133;51.012;-1.648;2022-07-23T02:10:21;13.93;;;9.02;;
53479;SDS011;56133;51.012;-1.648;2022-07-23T02:12:46;16.92;;;9.27;;
53479;SDS011;56133;51.012;-1.648;2022-07-23T02:15:12;14.57;;;8.70;;
53479;SDS011;56133;51.012;-1.648;2022-07-23T02:17:38;13.52;;;8.30;;
53479;SDS011;56133;51.012;-1.648;2022-07-23T02:20:03;13.75;;;9.18;;
53479;SDS011;56133;51.012;-1.648;2022-07-23T02:22:30;17.10;;;9.70;;
53479;SDS011;56133;51.012;-1.648;2022-07-23T02:24:55;18.27;;;9.55;;
53479;SDS011;56133;51.012;-1.648;2022-07-23T02:27:21;16.60;;;9.82;;
53479;SDS011;56133;51.012;-1.648;2022-07-23T02:29:48;13.40;;;9.02;;
53479;SDS011;56133;51.012;-1.648;2022-07-23T02:32:13;13.98;;;9.13;;
53479;SDS011;56133;51.012;-1.648;2022-07-23T02:34:39;16.23;;;9.40;;
53479;SDS011;56133;51.012;-1.648;2022-07-23T02:37:04;15.18;;;9.65;;
53479;SDS011;56133;51.012;-1.648;2022-07-23T02:39:30;14.50;;;9.50;;
53479;SDS011;56133;51.012;-1.648;2022-07-23T02:41:55;14.68;;;9.55;;
53479;SDS011;56133;51.012;-1.648;2022-07-23T02:44:21;11.98;;;8.50;;
53479;SDS011;56133;51.012;-1.648;2022-07-23T02:46:46;14.40;;;9.32;;
53479;SDS011;56133;51.012;-1.648;2022-07-23T02:49:11;15.70;;;8.55;;
53479;SDS011;56133;51.012;-1.648;2022-07-23T02:51:37;17.40;;;9.55;;
53479;SDS011;56133;51.012;-1.648;2022-07-23T02:54:02;17.88;;;9.15;;
53479;SDS011;56133;51.012;-1.648;2022-07-23T02:56:28;15.50;;;9.95;;
53479;SDS011;56133;51.012;-1.648;2022-07-23T02:58:53;12.18;;;9.20;;
53479;SDS011;56133;51.012;-1.648;2022-07-23T03:01:19;16.65;;;9.27;;
53479;SDS011;56133;51.012;-1.648;2022-07-23T03:03:44;16.08;;;9.48;;
53479;SDS011;56133;51.012;-1.648;2022-07-23T03:06:10;17.23;;;9.10;;
53479;SDS011;56133;51.012;-1.648;2022-07-23T03:08:35;14.23;;;9.50;;
53479;SDS011;56133;51.012;-1.648;2022-07-23T03:11:00;13.43;;;9.25;;
53479;SDS011;56133;51.012;-1.648;2022-07-23T03:13:26;14.00;;;9.18;;
53479;SDS011;56133;51.012;-1.648;2022-07-23T03:15:51;17.70;;;8.90;;
53479;SDS011;56133;51.012;-1.648;2022-07-23T03:18:17;13.88;;;8.77;;
53479;SDS011;56133;51.012;-1.648;2022-07-23T03:20:42;19.30;;;9.32;;
53479;SDS011;56133;51.012;-1.648;2022-07-23T03:23:08;12.15;;;9.20;;
53479;SDS011;56133;51.012;-1.648;2022-07-23T03:25:33;20.10;;;9.43;;
53479;SDS011;56133;51.012;-1.648;2022-07-23T03:27:59;12.77;;;8.60;;
53479;SDS011;56133;51.012;-1.648;2022-07-23T03:30:24;14.93;;;8.75;;
53479;SDS011;56133;51.012;-1.648;2022-07-23T03:32:50;13.93;;;9.02;;
53479;SDS011;56133;51.012;-1.648;2022-07-23T03:35:15;14.63;;;8.75;;
53479;SDS011;56133;51.012;-1.648;2022-07-23T03:37:40;16.23;;;8.85;;
53479;SDS011;56133;51.012;-1.648;2022-07-23T03:40:06;15.98;;;9.68;;
53479;SDS011;56133;51.012;-1.648;2022-07-23T03:42:32;19.35;;;9.65;;
53479;SDS011;56133;51.012;-1.648;2022-07-23T03:44:57;12.63;;;8.70;;
53479;SDS011;56133;51.012;-1.648;2022-07-23T03:47:23;13.55;;;8.60;;
53479;SDS011;56133;51.012;-1.648;2022-07-23T03:49:48;14.13;;;8.57;;
53479;SDS011;56133;51.012;-1.648;2022-07-23T03:52:14;14.30;;;8.68;;
53479;SDS011;56133;51.012;-1.648;2022-07-23T03:54:40;12.95;;;8.90;;
53479;SDS011;56133;51.012;-1.648;2022-07-23T03:57:05;13.10;;;8.18;;
53479;SDS011;56133;51.012;-1.648;2022-07-23T03:59:30;13.88;;;8.68;;
53479;SDS011;56133;51.012;-1.648;2022-07-23T04:01:56;13.10;;;8.05;;
53479;SDS011;56133;51.012;-1.648;2022-07-23T04:04:21;14.35;;;8.57;;
53479;SDS011;56133;51.012;-1.648;2022-07-23T04:06:47;13.82;;;7.90;;
53479;SDS011;56133;51.012;-1.648;2022-07-23T04:09:12;16.73;;;8.10;;
53479;SDS011;56133;51.012;-1.648;2022-07-23T04:11:38;12.10;;;8.38;;
53479;SDS011;56133;51.012;-1.648;2022-07-23T04:14:03;15.80;;;9.13;;
53479;SDS011;56133;51.012;-1.648;2022-07-23T04:16:29;14.77;;;8.70;;
53479;SDS011;56133;51.012;-1.648;2022-07-23T04:18:56;13.88;;;9.32;;
53479;SDS011;56133;51.012;-1.648;2022-07-23T04:21:22;13.07;;;8.57;;
53479;SDS011;56133;51.012;-1.648;2022-07-23T04:23:48;13.65;;;8.00;;
53479;SDS011;56133;51.012;-1.648;2022-07-23T04:26:14;13.68;;;8.55;;
53479;SDS011;56133;51.012;-1.648;2022-07-23T04:28:39;10.95;;;8.57;;
53479;SDS011;56133;51.012;-1.648;2022-07-23T04:31:05;13.45;;;8.43;;
53479;SDS011;56133;51.012;-1.648;2022-07-23T04:33:30;15.75;;;9.13;;
53479;SDS011;56133;51.012;-1.648;2022-07-23T04:35:56;13.85;;;8.85;;
53479;SDS011;56133;51.012;-1.648;2022-07-23T04:38:21;12.32;;;8.55;;
53479;SDS011;56133;51.012;-1.648;2022-07-23T04:40:46;14.30;;;8.95;;
53479;SDS011;56133;51.012;-1.648;2022-07-23T04:43:12;18.80;;;9.60;;
53479;SDS011;56133;51.012;-1.648;2022-07-23T04:45:37;17.27;;;9.60;;
53479;SDS011;56133;51.012;-1.648;2022-07-23T04:48:03;13.82;;;9.63;;
53479;SDS011;56133;51.012;-1.648;2022-07-23T04:50:29;12.63;;;8.77;;
53479;SDS011;56133;51.012;-1.648;2022-07-23T04:52:54;14.13;;;9.32;;
53479;SDS011;56133;51.012;-1.648;2022-07-23T04:55:19;13.02;;;8.80;;
53479;SDS011;56133;51.012;-1.648;2022-07-23T04:57:45;10.90;;;8.60;;
53479;SDS011;56133;51.012;-1.648;2022-07-23T05:00:10;12.50;;;8.88;;
53479;SDS011;56133;51.012;-1.648;2022-07-23T05:02:36;11.18;;;9.27;;
53479;SDS011;56133;51.012;-1.648;2022-07-23T05:05:02;14.07;;;9.80;;
53479;SDS011;56133;51.012;-1.648;2022-07-23T05:07:27;15.82;;;9.77;;
53479;SDS011;56133;51.012;-1.648;2022-07-23T05:09:53;12.13;;;8.85;;
53479;SDS011;56133;51.012;-1.648;2022-07-23T05:12:18;17.15;;;9.88;;
53479;SDS011;56133;51.012;-1.648;2022-07-23T05:14:43;15.30;;;9.70;;
53479;SDS011;56133;51.012;-1.648;2022-07-23T05:17:09;17.25;;;9.30;;
53479;SDS011;56133;51.012;-1.648;2022-07-23T05:19:35;15.40;;;9.57;;
53479;SDS011;56133;51.012;-1.648;2022-07-23T05:22:01;18.73;;;10.77;;
53479;SDS011;56133;51.012;-1.648;2022-07-23T05:24:26;17.98;;;10.68;;
53479;SDS011;56133;51.012;-1.648;2022-07-23T05:26:52;15.35;;;10.07;;
53479;SDS011;56133;51.012;-1.648;2022-07-23T05:29:18;20.45;;;11.68;;
53479;SDS011;56133;51.012;-1.648;2022-07-23T05:31:43;22.65;;;10.50;;
53479;SDS011;56133;51.012;-1.648;2022-07-23T05:34:09;18.92;;;11.15;;
53479;SDS011;56133;51.012;-1.648;2022-07-23T05:36:34;23.88;;;11.65;;
53479;SDS011;56133;51.012;-1.648;2022-07-23T05:39:00;18.00;;;11.45;;
53479;SDS011;56133;51.012;-1.648;2022-07-23T05:41:26;20.77;;;12.02;;
53479;SDS011;56133;51.012;-1.648;2022-07-23T05:43:51;19.23;;;10.95;;
53479;SDS011;56133;51.012;-1.648;2022-07-23T05:46:17;18.17;;;11.10;;
53479;SDS011;56133;51.012;-1.648;2022-07-23T05:48:42;16.80;;;11.07;;
53479;SDS011;56133;51.012;-1.648;2022-07-23T05:51:08;16.05;;;10.98;;
53479;SDS011;56133;51.012;-1.648;2022-07-23T05:53:34;19.42;;;10.95;;
53479;SDS011;56133;51.012;-1.648;2022-07-23T05:56:00;17.67;;;11.20;;
53479;SDS011;56133;51.012;-1.648;2022-07-23T05:58:26;17.52;;;10.35;;
53479;SDS011;56133;51.012;-1.648;2022-07-23T06:00:51;17.77;;;10.93;;
53479;SDS011;56133;51.012;-1.648;2022-07-23T06:03:17;14.55;;;11.27;;
53479;SDS011;56133;51.012;-1.648;2022-07-23T06:05:43;16.40;;;10.60;;
53479;SDS011;56133;51.012;-1.648;2022-07-23T06:08:08;17.23;;;10.98;;
53479;SDS011;56133;51.012;-1.648;2022-07-23T06:10:33;18.33;;;10.80;;
53479;SDS011;56133;51.012;-1.648;2022-07-23T06:12:59;20.17;;;11.20;;
53479;SDS011;56133;51.012;-1.648;2022-07-23T06:15:24;18.70;;;11.07;;
53479;SDS011;56133;51.012;-1.648;2022-07-23T06:17:50;17.23;;;10.70;;
53479;SDS011;56133;51.012;-1.648;2022-07-23T06:20:15;19.00;;;11.60;;
53479;SDS011;56133;51.012;-1.648;2022-07-23T06:22:41;18.02;;;10.90;;
53479;SDS011;56133;51.012;-1.648;2022-07-23T06:25:07;18.20;;;11.63;;
53479;SDS011;56133;51.012;-1.648;2022-07-23T06:27:32;22.08;;;12.75;;
53479;SDS011;56133;51.012;-1.648;2022-07-23T06:29:58;18.02;;;10.73;;
53479;SDS011;56133;51.012;-1.648;2022-07-23T06:32:24;16.13;;;10.35;;
53479;SDS011;56133;51.012;-1.648;2022-07-23T06:34:49;21.38;;;9.88;;
53479;SDS011;56133;51.012;-1.648;2022-07-23T06:37:15;19.55;;;11.20;;
53479;SDS011;56133;51.012;-1.648;2022-07-23T06:39:41;14.57;;;10.50;;
53479;SDS011;56133;51.012;-1.648;2022-07-23T06:42:07;25.63;;;11.63;;
53479;SDS011;56133;51.012;-1.648;2022-07-23T06:44:32;25.10;;;10.77;;
53479;SDS011;56133;51.012;-1.648;2022-07-23T06:46:58;17.35;;;9.85;;
53479;SDS011;56133;51.012;-1.648;2022-07-23T06:49:23;16.10;;;10.52;;
53479;SDS011;56133;51.012;-1.648;2022-07-23T06:51:49;17.70;;;9.70;;
53479;SDS011;56133;51.012;-1.648;2022-07-23T06:54:14;15.20;;;9.60;;
53479;SDS011;56133;51.012;-1.648;2022-07-23T06:56:40;17.23;;;10.88;;
53479;SDS011;56133;51.012;-1.648;2022-07-23T06:59:05;16.55;;;10.90;;
53479;SDS011;56133;51.012;-1.648;2022-07-23T07:01:31;16.67;;;8.52;;
53479;SDS011;56133;51.012;-1.648;2022-07-23T07:03:56;13.80;;;8.23;;
53479;SDS011;56133;51.012;-1.648;2022-07-23T07:06:22;16.60;;;8.88;;
53479;SDS011;56133;51.012;-1.648;2022-07-23T07:08:47;13.65;;;8.32;;
53479;SDS011;56133;51.012;-1.648;2022-07-23T07:11:13;19.35;;;9.60;;
53479;SDS011;56133;51.012;-1.648;2022-07-23T07:13:38;15.82;;;9.55;;
53479;SDS011;56133;51.012;-1.648;2022-07-23T07:16:04;16.38;;;9.57;;
53479;SDS011;56133;51.012;-1.648;2022-07-23T07:18:30;18.20;;;9.25;;
53479;SDS011;56133;51.012;-1.648;2022-07-23T07:20:56;12.95;;;8.70;;
53479;SDS011;56133;51.012;-1.648;2022-07-23T07:23:22;10.85;;;8.57;;
53479;SDS011;56133;51.012;-1.648;2022-07-23T07:25:48;17.85;;;9.98;;
53479;SDS011;56133;51.012;-1.648;2022-07-23T07:28:13;15.57;;;9.18;;
53479;SDS011;56133;51.012;-1.648;2022-07-23T07:30:39;13.40;;;8.90;;
53479;SDS011;56133;51.012;-1.648;2022-07-23T07:33:05;14.18;;;9.02;;
53479;SDS011;56133;51.012;-1.648;2022-07-23T07:35:31;15.80;;;7.93;;
53479;SDS011;56133;51.012;-1.648;2022-07-23T07:37:57;10.90;;;7.53;;
53479;SDS011;56133;51.012;-1.648;2022-07-23T07:40:24;13.30;;;8.07;;
53479;SDS011;56133;51.012;-1.648;2022-07-23T07:42:51;15.73;;;8.77;;
53479;SDS011;56133;51.012;-1.648;2022-07-23T07:45:17;12.80;;;8.07;;
53479;SDS011;56133;51.012;-1.648;2022-07-23T07:47:45;12.65;;;7.35;;
53479;SDS011;56133;51.012;-1.648;2022-07-23T07:50:10;10.77;;;6.75;;
53479;SDS011;56133;51.012;-1.648;2022-07-23T07:52:36;11.05;;;7.38;;
53479;SDS011;56133;51.012;-1.648;2022-07-23T07:55:05;10.32;;;6.90;;
53479;SDS011;56133;51.012;-1.648;2022-07-23T07:57:32;12.93;;;7.20;;
53479;SDS011;56133;51.012;-1.648;2022-07-23T07:59:58;8.65;;;6.20;;
53479;SDS011;56133;51.012;-1.648;2022-07-23T08:02:23;9.68;;;7.20;;
53479;SDS011;56133;51.012;-1.648;2022-07-23T08:04:48;8.05;;;5.15;;
53479;SDS011;56133;51.012;-1.648;2022-07-23T08:07:14;10.80;;;6.40;;
53479;SDS011;56133;51.012;-1.648;2022-07-23T08:09:40;8.05;;;5.10;;
53479;SDS011;56133;51.012;-1.648;2022-07-23T08:12:05;7.72;;;5.07;;
53479;SDS011;56133;51.012;-1.648;2022-07-23T08:14:31;9.38;;;5.15;;
53479;SDS011;56133;51.012;-1.648;2022-07-23T08:16:57;8.23;;;5.00;;
53479;SDS011;56133;51.012;-1.648;2022-07-23T08:19:22;9.70;;;5.00;;
53479;SDS011;56133;51.012;-1.648;2022-07-23T08:21:48;9.02;;;4.90;;
53479;SDS011;56133;51.012;-1.648;2022-07-23T08:24:13;7.13;;;4.57;;
53479;SDS011;56133;51.012;-1.648;2022-07-23T08:26:39;6.18;;;4.25;;
53479;SDS011;56133;51.012;-1.648;2022-07-23T08:29:04;7.90;;;5.10;;
53479;SDS011;56133;51.012;-1.648;2022-07-23T08:31:30;7.47;;;4.32;;
53479;SDS011;56133;51.012;-1.648;2022-07-23T08:33:58;6.10;;;3.95;;
53479;SDS011;56133;51.012;-1.648;2022-07-23T08:36:24;5.93;;;3.50;;
53479;SDS011;56133;51.012;-1.648;2022-07-23T08:38:52;7.50;;;4.32;;
53479;SDS011;56133;51.012;-1.648;2022-07-23T08:41:18;4.53;;;2.92;;
53479;SDS011;56133;51.012;-1.648;2022-07-23T08:43:44;5.65;;;2.70;;
53479;SDS011;56133;51.012;-1.648;2022-07-23T08:46:09;5.80;;;2.63;;
53479;SDS011;56133;51.012;-1.648;2022-07-23T08:48:35;5.70;;;3.03;;
53479;SDS011;56133;51.012;-1.648;2022-07-23T08:51:02;5.43;;;2.10;;
53479;SDS011;56133;51.012;-1.648;2022-07-23T08:53:29;4.65;;;1.75;;
53479;SDS011;56133;51.012;-1.648;2022-07-23T08:55:58;5.38;;;1.90;;
53479;SDS011;56133;51.012;-1.648;2022-07-23T08:58:29;3.70;;;2.13;;
53479;SDS011;56133;51.012;-1.648;2022-07-23T09:00:55;4.18;;;2.30;;
53479;SDS011;56133;51.012;-1.648;2022-07-23T09:03:22;5.07;;;1.83;;
53479;SDS011;56133;51.012;-1.648;2022-07-23T09:05:50;7.50;;;2.10;;
53479;SDS011;56133;51.012;-1.648;2022-07-23T09:08:19;3.67;;;1.70;;
53479;SDS011;56133;51.012;-1.648;2022-07-23T09:15:51;3.95;;;1.80;;
53479;SDS011;56133;51.012;-1.648;2022-07-23T09:18:18;3.42;;;1.60;;
53479;SDS011;56133;51.012;-1.648;2022-07-23T09:20:44;4.22;;;1.60;;
53479;SDS011;56133;51.012;-1.648;2022-07-23T09:23:09;2.42;;;1.63;;
53479;SDS011;56133;51.012;-1.648;2022-07-23T09:25:35;2.97;;;1.50;;
53479;SDS011;56133;51.012;-1.648;2022-07-23T09:28:00;2.38;;;1.35;;
53479;SDS011;56133;51.012;-1.648;2022-07-23T09:30:31;2.78;;;1.27;;
53479;SDS011;56133;51.012;-1.648;2022-07-23T09:33:07;3.20;;;1.35;;
53479;SDS011;56133;51.012;-1.648;2022-07-23T09:35:52;3.63;;;1.30;;
53479;SDS011;56133;51.012;-1.648;2022-07-23T09:38:20;2.60;;;1.13;;
53479;SDS011;56133;51.012;-1.648;2022-07-23T09:40:47;2.60;;;1.30;;
53479;SDS011;56133;51.012;-1.648;2022-07-23T09:43:33;3.38;;;1.40;;
53479;SDS011;56133;51.012;-1.648;2022-07-23T09:48:49;1.98;;;1.30;;
53479;SDS011;56133;51.012;-1.648;2022-07-23T09:51:16;1.73;;;1.27;;
53479;SDS011;56133;51.012;-1.648;2022-07-23T09:54:02;2.03;;;1.10;;
53479;SDS011;56133;51.012;-1.648;2022-07-23T09:56:29;2.17;;;1.20;;
53479;SDS011;56133;51.012;-1.648;2022-07-23T09:58:56;2.25;;;1.00;;
53479;SDS011;56133;51.012;-1.648;2022-07-23T10:01:37;2.13;;;1.10;;
53479;SDS011;56133;51.012;-1.648;2022-07-23T10:04:03;1.75;;;1.00;;
53479;SDS011;56133;51.012;-1.648;2022-07-23T10:06:30;2.08;;;1.30;;
53479;SDS011;56133;51.012;-1.648;2022-07-23T10:08:56;5.55;;;1.50;;
53479;SDS011;56133;51.012;-1.648;2022-07-23T10:11:24;2.47;;;1.27;;
53479;SDS011;56133;51.012;-1.648;2022-07-23T10:13:53;1.95;;;1.30;;
53479;SDS011;56133;51.012;-1.648;2022-07-23T10:16:24;1.73;;;1.05;;
53479;SDS011;56133;51.012;-1.648;2022-07-23T10:18:51;2.45;;;1.30;;
53479;SDS011;56133;51.012;-1.648;2022-07-23T10:21:19;1.90;;;1.17;;
53479;SDS011;56133;51.012;-1.648;2022-07-23T10:32:44;4.97;;;1.20;;
53479;SDS011;56133;51.012;-1.648;2022-07-23T10:37:47;2.35;;;1.35;;
53479;SDS011;56133;51.012;-1.648;2022-07-23T10:40:20;1.50;;;1.10;;
53479;SDS011;56133;51.012;-1.648;2022-07-23T10:42:48;2.90;;;1.25;;
53479;SDS011;56133;51.012;-1.648;2022-07-23T10:51:12;2.45;;;1.33;;
53479;SDS011;56133;51.012;-1.648;2022-07-23T10:56:17;2.20;;;1.25;;
53479;SDS011;56133;51.012;-1.648;2022-07-23T10:59:04;3.28;;;1.20;;
53479;SDS011;56133;51.012;-1.648;2022-07-23T11:01:37;2.78;;;1.23;;
53479;SDS011;56133;51.012;-1.648;2022-07-23T11:04:04;2.78;;;1.20;;
53479;SDS011;56133;51.012;-1.648;2022-07-23T11:09:55;1.67;;;1.00;;
53479;SDS011;56133;51.012;-1.648;2022-07-23T11:20:22;3.28;;;1.50;;
53479;SDS011;56133;51.012;-1.648;2022-07-23T11:27:47;2.53;;;1.30;;
53479;SDS011;56133;51.012;-1.648;2022-07-23T11:30:56;3.92;;;1.80;;
53479;SDS011;56133;51.012;-1.648;2022-07-23T11:35:35;2.55;;;1.48;;
53479;SDS011;56133;51.012;-1.648;2022-07-23T11:38:04;1.20;;;1.10;;
53479;SDS011;56133;51.012;-1.648;2022-07-23T11:40:35;4.18;;;1.40;;
53479;SDS011;56133;51.012;-1.648;2022-07-23T11:43:08;1.95;;;1.30;;
53479;SDS011;56133;51.012;-1.648;2022-07-23T11:45:41;1.98;;;1.25;;
53479;SDS011;56133;51.012;-1.648;2022-07-23T11:48:09;1.75;;;1.27;;
53479;SDS011;56133;51.012;-1.648;2022-07-23T11:50:41;2.17;;;1.20;;
53479;SDS011;56133;51.012;-1.648;2022-07-23T11:53:07;1.38;;;1.17;;
53479;SDS011;56133;51.012;-1.648;2022-07-23T11:55:33;1.55;;;1.25;;
53479;SDS011;56133;51.012;-1.648;2022-07-23T11:57:59;3.00;;;1.35;;
53479;SDS011;56133;51.012;-1.648;2022-07-23T12:00:26;2.80;;;1.00;;
53479;SDS011;56133;51.012;-1.648;2022-07-23T12:02:55;2.50;;;1.00;;
53479;SDS011;56133;51.012;-1.648;2022-07-23T12:05:29;2.28;;;1.27;;
53479;SDS011;56133;51.012;-1.648;2022-07-23T12:07:56;2.38;;;1.10;;
53479;SDS011;56133;51.012;-1.648;2022-07-23T12:10:24;1.52;;;0.95;;
53479;SDS011;56133;51.012;-1.648;2022-07-23T12:13:04;3.90;;;1.20;;
53479;SDS011;56133;51.012;-1.648;2022-07-23T12:15:36;1.33;;;1.23;;
53479;SDS011;56133;51.012;-1.648;2022-07-23T12:18:04;1.23;;;1.10;;
53479;SDS011;56133;51.012;-1.648;2022-07-23T12:20:33;1.77;;;1.20;;
53479;SDS011;56133;51.012;-1.648;2022-07-23T12:23:02;1.65;;;1.20;;
53479;SDS011;56133;51.012;-1.648;2022-07-23T12:25:31;2.40;;;1.30;;
53479;SDS011;56133;51.012;-1.648;2022-07-23T12:28:08;1.00;;;0.90;;
53479;SDS011;56133;51.012;-1.648;2022-07-23T12:33:06;2.17;;;1.15;;
53479;SDS011;56133;51.012;-1.648;2022-07-23T12:35:34;2.42;;;1.10;;
53479;SDS011;56133;51.012;-1.648;2022-07-23T12:38:11;1.92;;;1.27;;
53479;SDS011;56133;51.012;-1.648;2022-07-23T12:43:27;4.28;;;1.65;;
53479;SDS011;56133;51.012;-1.648;2022-07-23T12:48:36;1.42;;;1.15;;
53479;SDS011;56133;51.012;-1.648;2022-07-23T12:51:04;1.23;;;1.10;;
53479;SDS011;56133;51.012;-1.648;2022-07-23T12:53:32;2.20;;;1.13;;
53479;SDS011;56133;51.012;-1.648;2022-07-23T12:56:03;1.65;;;1.40;;
53479;SDS011;56133;51.012;-1.648;2022-07-23T13:06:37;3.03;;;1.40;;
53479;SDS011;56133;51.012;-1.648;2022-07-23T13:09:05;3.30;;;1.60;;
53479;SDS011;56133;51.012;-1.648;2022-07-23T13:11:32;1.83;;;1.40;;
53479;SDS011;56133;51.012;-1.648;2022-07-23T13:13:59;3.88;;;1.75;;
53479;SDS011;56133;51.012;-1.648;2022-07-23T13:16:28;2.85;;;1.58;;
53479;SDS011;56133;51.012;-1.648;2022-07-23T13:18:55;2.45;;;1.63;;
53479;SDS011;56133;51.012;-1.648;2022-07-23T13:21:23;2.15;;;1.50;;
53479;SDS011;56133;51.012;-1.648;2022-07-23T13:23:49;2.22;;;1.60;;
53479;SDS011;56133;51.012;-1.648;2022-07-23T13:26:15;2.65;;;1.27;;
53479;SDS011;56133;51.012;-1.648;2022-07-23T13:28:41;2.33;;;1.33;;
53479;SDS011;56133;51.012;-1.648;2022-07-23T13:31:07;4.22;;;1.65;;
53479;SDS011;56133;51.012;-1.648;2022-07-23T13:33:33;2.42;;;1.50;;
53479;SDS011;56133;51.012;-1.648;2022-07-23T13:35:59;2.17;;;1.33;;
53479;SDS011;56133;51.012;-1.648;2022-07-23T13:38:25;2.75;;;1.30;;
53479;SDS011;56133;51.012;-1.648;2022-07-23T13:40:51;2.47;;;1.30;;
53479;SDS011;56133;51.012;-1.648;2022-07-23T13:43:19;2.20;;;1.30;;
53479;SDS011;56133;51.012;-1.648;2022-07-23T13:45:48;1.52;;;1.08;;
53479;SDS011;56133;51.012;-1.648;2022-07-23T13:48:15;1.83;;;1.23;;
53479;SDS011;56133;51.012;-1.648;2022-07-23T13:50:42;2.03;;;1.17;;
53479;SDS011;56133;51.012;-1.648;2022-07-23T13:53:13;2.50;;;1.50;;
53479;SDS011;56133;51.012;-1.648;2022-07-23T13:55:41;1.73;;;1.30;;
53479;SDS011;56133;51.012;-1.648;2022-07-23T13:58:08;1.92;;;1.38;;
53479;SDS011;56133;51.012;-1.648;2022-07-23T14:00:35;4.50;;;1.88;;
53479;SDS011;56133;51.012;-1.648;2022-07-23T14:03:02;2.80;;;1.38;;
53479;SDS011;56133;51.012;-1.648;2022-07-23T14:05:27;3.25;;;1.70;;
53479;SDS011;56133;51.012;-1.648;2022-07-23T14:07:53;2.50;;;1.67;;
53479;SDS011;56133;51.012;-1.648;2022-07-23T14:10:19;1.88;;;1.50;;
53479;SDS011;56133;51.012;-1.648;2022-07-23T14:12:47;3.88;;;1.83;;
53479;SDS011;56133;51.012;-1.648;2022-07-23T14:15:13;3.65;;;2.15;;
53479;SDS011;56133;51.012;-1.648;2022-07-23T14:17:40;2.83;;;1.80;;
53479;SDS011;56133;51.012;-1.648;2022-07-23T14:20:07;4.30;;;1.88;;
53479;SDS011;56133;51.012;-1.648;2022-07-23T14:22:34;3.55;;;1.88;;
53479;SDS011;56133;51.012;-1.648;2022-07-23T14:25:00;5.47;;;1.92;;
53479;SDS011;56133;51.012;-1.648;2022-07-23T14:27:26;2.40;;;1.80;;
53479;SDS011;56133;51.012;-1.648;2022-07-23T14:29:53;2.75;;;1.80;;
53479;SDS011;56133;51.012;-1.648;2022-07-23T14:32:19;2.45;;;1.80;;
53479;SDS011;56133;51.012;-1.648;2022-07-23T14:34:45;4.07;;;1.80;;
53479;SDS011;56133;51.012;-1.648;2022-07-23T14:37:10;2.90;;;1.80;;
53479;SDS011;56133;51.012;-1.648;2022-07-23T14:39:37;3.75;;;1.80;;
53479;SDS011;56133;51.012;-1.648;2022-07-23T14:42:03;2.30;;;2.10;;
53479;SDS011;56133;51.012;-1.648;2022-07-23T14:44:29;2.58;;;1.67;;
53479;SDS011;56133;51.012;-1.648;2022-07-23T14:46:54;4.18;;;1.90;;
53479;SDS011;56133;51.012;-1.648;2022-07-23T14:49:20;2.97;;;1.45;;
53479;SDS011;56133;51.012;-1.648;2022-07-23T14:51:45;3.00;;;1.40;;
53479;SDS011;56133;51.012;-1.648;2022-07-23T14:54:11;5.05;;;1.92;;
53479;SDS011;56133;51.012;-1.648;2022-07-23T14:56:37;4.82;;;2.10;;
53479;SDS011;56133;51.012;-1.648;2022-07-23T14:59:03;5.60;;;2.05;;
53479;SDS011;56133;51.012;-1.648;2022-07-23T15:01:29;3.95;;;1.80;;
53479;SDS011;56133;51.012;-1.648;2022-07-23T15:03:54;2.53;;;2.00;;
53479;SDS011;56133;51.012;-1.648;2022-07-23T15:06:20;3.50;;;2.20;;
53479;SDS011;56133;51.012;-1.648;2022-07-23T15:08:45;3.15;;;2.22;;
53479;SDS011;56133;51.012;-1.648;2022-07-23T15:11:11;3.00;;;2.53;;
53479;SDS011;56133;51.012;-1.648;2022-07-23T15:13:37;3.67;;;2.47;;
53479;SDS011;56133;51.012;-1.648;2022-07-23T15:16:03;4.18;;;2.60;;
53479;SDS011;56133;51.012;-1.648;2022-07-23T15:18:29;4.03;;;2.20;;
53479;SDS011;56133;51.012;-1.648;2022-07-23T15:20:55;3.88;;;2.47;;
53479;SDS011;56133;51.012;-1.648;2022-07-23T15:23:21;3.47;;;2.00;;
53479;SDS011;56133;51.012;-1.648;2022-07-23T15:25:47;3.15;;;2.42;;